メインページ
METAR-TAF:

METAR-TAF

空港 :

イルクーツク, ロシア

イルクーツク国際空港

緯度: 52-16N, 経度: 104-19E, 海抜: 513m

現時点の気象観測

当レポートは18分前の12:00(UTC)に作成
南/南東の風 10kt
気温 -10°C
湿度 67%
気圧 1016 hPa
視程10km以上
1,500メートル以下は雲なし、積乱雲なし

METAR: UIII 241200Z 16005MPS CAVOK M10/M15 Q1016 R12/60D NOSIG RMK QFE720/0960

時間: 20:18 (12:18 UTC)

予報

当レポートは1時間18分前の11:00(UTC)に作成
予報は24日の 12時(UTC)から 25日の 12時(UTC)まで有効
の風 10kt
視程10km以上
25日の 00時(UTC)から 25日の 02時(UTC)まで徐々に
西/北西の風 10kt
高度1100ftの千切れ雲あり, 積乱雲.
25日の 05時(UTC)から 25日の 06時(UTC)まで徐々に
視程: 2500m
弱いにわか雪
25日の 06時(UTC)から 25日の 12時(UTC)まで一時的に
北西の風 19kt
視程: 0500m
高度200ftの
激しいにわか雪, 高い地吹雪

TAF: UIII 241100Z 2412/2512 17005MPS 9999 NSC BECMG 2500/2502 30005MPS BKN011CB BECMG 2505/2506 2500 -SHSN TEMPO 2506/2512 32010MPS 0500 +SHSN BLSN VV002

4,000以上の空港の気象観測と天気予報(METAR報とTAF報)

利用可能な観測所は地図上に黄色い丸と赤い丸で示す。

丸の上にカーソルを重ねると観測所名を参照できる。

次にクリックすると気象観測と天気予報を参照できる。

マップの切り替え:黒色「×」印の緑ボタンをクリックして拡大、「-」印の緑ボタンをクリックして縮小、緑色の三角印をクリックして隣りの地図に切り替え


METAR-TAF: